Tiempo atmosférico en la estación meteorológica de Padrón, A Coruña (100 m.)



Fecha
DESCASC
Temp. máxima en grados centígrados (hora)
DESCASC
Temp. mínima en grados centígrados (hora)
DESCASC
Temp. media en grados centígrados
DESCASC
Racha de viento máxima en m/sg (hora)
DESCASC
Velocidad máxima media en intervalos de 10 minutos(hora)
DESCASC
Precipitaciones diarias en mm
DESCASC
Precipitaciones de 00:00 a 06:00 en mm
DESCASC
Precipitaciones de 06:00 a 12:00 en mm
DESCASC
Precipitaciones de 12:00 a 18:00 en mm
DESCASC
Precipitaciones de 18:00 a 24:00 en mm
DESCASC
25-01-2020 14.8 (16:00) 1.1 (09:00) 8 6.39 (04:00) 5 (04:00) 0 0 0 0 0
24-01-2020 15.9 (16:20) 1.9 (08:30) 8.9 6.39 (02:50) 5.28 (02:50) 0 0 0 0 0
23-01-2020 -- (--) -- (--) -- -- (--) -- (--) -- -- -- -- 0
22-01-2020 -- (--) -- (--) -- -- (--) -- (--) -- -- -- -- --
21-01-2020 -- (--) -- (--) -- -- (--) -- (--) -- -- -- -- --
20-01-2020 -- (--) -- (--) -- -- (--) -- (--) -- 0 0 -- --
19-01-2020 12.6 (15:00) 6.3 (00:00) 9.5 18.89 (12:20) 11.67 (12:40) 0.1 0.1 0 0 0
18-01-2020 13.8 (13:40) 7.4 (00:00) 10.6 14.72 (12:00) 5.83 (12:00) 3.1 0 0.7 1.3 1.1
17-01-2020 11.1 (12:40) 5.9 (00:00) 8.5 8.61 (00:20) 3.06 (00:20) 4.6 3.3 1.3 0 0
16-01-2020 14.3 (07:50) 8.6 (00:00) 11.5 21.67 (16:30) 7.22 (04:10) 79.2 4 6.8 68.2 0.2
15-01-2020 14.2 (13:50) 8.2 (00:00) 11.2 18.33 (03:50) 7.78 (03:50) 9.7 8.3 0.9 0.1 0.4
14-01-2020 15 (15:30) 9.9 (00:00) 12.4 16.94 (14:30) 6.94 (23:50) 3.8 2.6 0.7 0 0.5
13-01-2020 10.3 (16:20) 7.3 (00:00) 8.8 11.67 (22:10) 4.44 (21:40) 1.2 0 0 0 1.2
12-01-2020 12.5 (16:30) -0.3 (00:00) 6.1 8.61 (07:10) 6.67 (07:10) 0 0 0 0 0
11-01-2020 12.5 (16:30) -0.6 (-00:0) 5.9 7.78 (08:30) 5.56 (04:30) 0 0 0 0 0
10-01-2020 11.6 (15:00) 2.5 (00:00) 7.1 6.67 (09:50) 5 (10:30) 0.1 0.1 0 0 0
09-01-2020 13.2 (13:00) 6.4 (00:00) 9.8 12.5 (12:00) 5.28 (12:00) 2.4 1.3 0.8 0.2 0.1
08-01-2020 -- (--) -- (--) -- -- (--) -- (--) -- -- -- -- 0.5
07-01-2020 -- (--) -- (--) -- -- (--) -- (--) -- -- -- -- --
06-01-2020 -- (--) -- (--) -- -- (--) -- (--) -- -- -- -- --
05-01-2020 -- (--) -- (--) -- -- (--) -- (--) -- -- -- -- --
04-01-2020 -- (--) -- (--) -- -- (--) -- (--) -- -- -- -- --
03-01-2020 -- (--) -- (--) -- -- (--) -- (--) -- -- -- -- --
02-01-2020 -- (--) -- (--) -- -- (--) -- (--) -- -- -- -- --
01-01-2020 -- (--) -- (--) -- -- (--) -- (--) -- -- -- -- --
31-12-2019 -- (--) -- (--) -- -- (--) -- (--) -- -- -- -- --
30-12-2019 -- (--) -- (--) -- -- (--) -- (--) -- -- -- -- --
29-12-2019 -- (--) -- (--) -- -- (--) -- (--) -- -- -- -- --
28-12-2019 -- (--) -- (--) -- -- (--) -- (--) -- -- -- -- --

Gráficas

Temp. máximas Temp. mínimas Temp. medias Precipitaciones Rachas de viento máximas Velocidades máximas media en intervalos de 10 minutos

Datos horarios

Fecha y hora oficial Temperatura (ºC) Velocidad del viento (km/h) Dirección del viento Racha (km/h) Dirección de racha Precipitación (mm) Presión (hPa) Tendencia (hPa) Humedad (%)
2020-01-26 23:00:00 10.7 9 Oeste 23 Sudoeste 0.6 -- -- 93
2020-01-26 22:00:00 11.3 7 Oeste 25 Sudoeste 0.1 -- -- 84
2020-01-26 21:00:00 11.2 10 Oeste 25 Oeste 0 -- -- 85
2020-01-26 20:00:00 10.9 8 Sudoeste 29 Sudoeste 0.1 -- -- 83
2020-01-26 19:00:00 11.4 11 Oeste 33 Oeste 0 -- -- 80
2020-01-26 18:00:00 11.9 13 Oeste 34 Oeste 0 -- -- 75
2020-01-26 17:00:00 12.2 12 Oeste 35 Oeste 0 -- -- 75
2020-01-26 16:00:00 12.2 13 Oeste 33 Oeste 0 -- -- 72
2020-01-26 15:00:00 12.2 10 Oeste 27 Oeste 0 -- -- 74
2020-01-26 14:00:00 12.3 10 Oeste 27 Sudoeste 0 -- -- 73
2020-01-26 13:00:00 13.1 9 Oeste 24 Sudoeste 0 -- -- 72
2020-01-26 12:00:00 11.4 8 Sudoeste 31 Sudoeste 0 -- -- 78
2020-01-26 11:00:00 10.7 6 Oeste 21 Sudoeste 0 -- -- 87
2020-01-26 10:00:00 8.3 4 Oeste 16 Oeste 0 -- -- 96
2020-01-26 09:00:00 6 0 Calma 12 Nordeste 0 -- -- 97
2020-01-26 08:00:00 5 4 Nordeste 13 Nordeste 0 -- -- 97
2020-01-26 07:00:00 5.8 4 Norte 9 Norte 0 -- -- 97
2020-01-26 06:00:00 4.8 4 Nordeste 12 Nordeste 0 -- -- 97
2020-01-26 05:00:00 4.6 6 Nordeste 15 Nordeste 0 -- -- 96
2020-01-26 04:00:00 4.3 11 Nordeste 14 Nordeste 0 -- -- 96
2020-01-26 03:00:00 4.7 8 Nordeste 14 Nordeste 0 -- -- 95
2020-01-26 02:00:00 5.3 4 Nordeste 10 Nordeste 0 -- -- 95
2020-01-26 01:00:00 5.5 6 Nordeste 8 Nordeste 0 -- -- 94
2020-01-26 00:00:00 6.2 5 Nordeste 10 Nordeste 0 -- -- 93
2020-01-25 23:00:00 7.2 7 Nordeste 8 Nordeste 0 -- -- 91
2020-01-25 22:00:00 8.5 0 Calma 4 Sudoeste 0 -- -- 89
2020-01-25 21:00:00 9.1 0 Calma 7 Oeste 0 -- -- 89
2020-01-25 20:00:00 9.4 2 Oeste 7 Sudoeste 0 -- -- 88
2020-01-25 19:00:00 9.6 3 Oeste 8 Oeste 0 -- -- 83
2020-01-25 18:00:00 11.6 2 Oeste 9 Oeste 0 -- -- 71
2020-01-25 17:00:00 13.3 0 Calma 12 Oeste 0 -- -- 57
2020-01-25 16:00:00 14.8 3 Oeste 12 Sudoeste 0 -- -- 53
2020-01-25 15:00:00 14.2 4 Oeste 7 Sur 0 -- -- 52
2020-01-25 14:00:00 12.1 6 Este 15 Nordeste 0 -- -- 60
2020-01-25 13:00:00 10.3 10 Este 18 Este 0 -- -- 74
2020-01-25 12:00:00 6.7 13 Nordeste 22 Este 0 -- -- 97
2020-01-25 11:00:00 3.5 14 Este 22 Nordeste 0 -- -- 97
2020-01-25 10:00:00 1.5 18 Nordeste 23 Este 0 -- -- 97
2020-01-25 09:00:00 1.1 17 Nordeste 22 Este 0 -- -- 97
2020-01-25 08:00:00 1.7 15 Este 22 Este 0 -- -- 97
2020-01-25 07:00:00 1.5 14 Este 20 Este 0 -- -- 97
2020-01-25 06:00:00 1.6 14 Nordeste 17 Nordeste 0 -- -- 96
2020-01-25 05:00:00 2.2 12 Nordeste 21 Nordeste 0 -- -- 96
2020-01-25 04:00:00 3.3 18 Nordeste 23 Nordeste 0 -- -- 96
2020-01-25 03:00:00 4 16 Nordeste 21 Nordeste 0 -- -- 95
2020-01-25 02:00:00 4.7 11 Nordeste 17 Este 0 -- -- 94
2020-01-25 01:00:00 5.4 13 Nordeste 19 Nordeste 0 -- -- 94
2020-01-25 00:00:00 5.9 8 Este 15 Nordeste 0 -- -- 91
2020-01-24 23:00:00 6.9 6 Nordeste 15 Este 0 -- -- 89
2020-01-24 22:00:00 7.6 9 Este 13 Este 0 -- -- 86
2020-01-24 21:00:00 9.5 0 Calma 7 Noroeste 0 -- -- 80
2020-01-24 20:00:00 10.5 0 Calma 7 Este 0 -- -- 75
2020-01-24 19:00:00 11.6 0 Calma 3 Oeste 0 -- -- 69
2020-01-24 18:00:00 13.3 2 Sudoeste 5 Sudoeste 0 -- -- 58
2020-01-24 17:00:00 14.8 2 Oeste 6 Oeste 0 -- -- 52
2020-01-24 16:00:00 15.5 2 Oeste 7 Oeste 0 -- -- 48
2020-01-24 15:00:00 15.2 2 Sudoeste 8 Este 0 -- -- 52
2020-01-24 14:00:00 13.1 3 Sudeste 13 Este 0 -- -- 59
2020-01-24 13:00:00 11.9 9 Este 20 Este 0 -- -- 63
2020-01-24 12:00:00 8.1 14 Este 19 Este 0 -- -- 78
2020-01-24 11:00:00 6.1 13 Nordeste 22 Este 0 -- -- 91
2020-01-24 10:00:00 3.3 16 Nordeste 22 Nordeste 0 -- -- 97
2020-01-24 09:00:00 2.3 15 Nordeste 22 Este 0 -- -- 97
2020-01-24 08:00:00 2.5 16 Este 23 Nordeste 0 -- -- 97
2020-01-24 07:00:00 3 17 Nordeste 22 Nordeste 0 -- -- 96
2020-01-24 06:00:00 3.4 16 Este 22 Este 0 -- -- 95
2020-01-24 05:00:00 3.8 12 Este 20 Este 0 -- -- 95
2020-01-24 04:00:00 4.7 15 Este 23 Nordeste 0 -- -- 93
2020-01-24 03:00:00 5.7 15 Nordeste 23 Nordeste 0 -- -- 92
2020-01-24 02:00:00 5.3 14 Este 21 Nordeste 0 -- -- 92
2020-01-24 01:00:00 6 12 Nordeste 19 Nordeste 0 -- -- 91
2020-01-24 00:00:00 6.2 13 Nordeste 20 Este 0 -- -- 88
2020-01-23 23:00:00 6.9 10 Nordeste 18 Nordeste 0 -- -- 88
2020-01-23 22:00:00 7.4 13 Nordeste 19 Nordeste 0 -- -- 88
2020-01-23 21:00:00 6.8 13 Este 19 Nordeste 0 -- -- 87
2020-01-23 20:00:00 7.7 11 Nordeste 15 Nordeste 0 -- -- 82
2020-01-23 19:00:00 9.2 8 Nordeste 11 Nordeste 0 -- -- 70
2020-01-23 18:00:00 11.5 3 Nordeste 7 Este 0 -- -- 66
2020-01-23 17:00:00 12.8 5 Este 9 Este 0 -- -- 63
2020-01-23 16:00:00 13.8 5 Este 13 Este 0 -- -- 56
2020-01-23 15:00:00 13.2 12 Este 16 Este 0 -- -- 62
2020-01-23 14:00:00 12.2 4 Este -- -- -- -- -- 64
2020-01-23 13:00:00 -- -- -- -- -- -- -- -- --
2020-01-23 12:00:00 -- -- -- -- -- -- -- -- --
2020-01-23 11:00:00 -- -- -- -- -- -- -- -- --
2020-01-23 10:00:00 -- -- -- -- -- -- -- -- --
2020-01-23 09:00:00 -- -- -- -- -- -- -- -- --
2020-01-23 08:00:00 -- -- -- -- -- -- -- -- --
2020-01-23 07:00:00 -- -- -- -- -- -- -- -- --
2020-01-23 06:00:00 -- -- -- -- -- -- -- -- --
2020-01-23 05:00:00 -- -- -- -- -- -- -- -- --
2020-01-23 04:00:00 -- -- -- -- -- -- -- -- --
2020-01-23 03:00:00 -- -- -- -- -- -- -- -- --
2020-01-23 02:00:00 -- -- -- -- -- -- -- -- --
2020-01-23 01:00:00 -- -- -- -- -- -- -- -- --
2020-01-23 00:00:00 -- -- -- -- -- -- -- -- --
2020-01-22 23:00:00 -- -- -- -- -- -- -- -- --
2020-01-22 22:00:00 -- -- -- -- -- -- -- -- --
2020-01-22 21:00:00 -- -- -- -- -- -- -- -- --
2020-01-22 20:00:00 -- -- -- -- -- -- -- -- --
2020-01-22 19:00:00 -- -- -- -- -- -- -- -- --
2020-01-22 18:00:00 -- -- -- -- -- -- -- -- --
2020-01-22 17:00:00 -- -- -- -- -- -- -- -- --
2020-01-22 16:00:00 -- -- -- -- -- -- -- -- --
2020-01-22 15:00:00 -- -- -- -- -- -- -- -- --
2020-01-22 14:00:00 -- -- -- -- -- -- -- -- --
2020-01-22 13:00:00 -- -- -- -- -- -- -- -- --
2020-01-22 12:00:00 -- -- -- -- -- -- -- -- --
2020-01-22 11:00:00 -- -- -- -- -- -- -- -- --
2020-01-22 10:00:00 -- -- -- -- -- -- -- -- --
2020-01-22 09:00:00 -- -- -- -- -- -- -- -- --
2020-01-22 08:00:00 -- -- -- -- -- -- -- -- --
2020-01-22 07:00:00 -- -- -- -- -- -- -- -- --
2020-01-22 06:00:00 -- -- -- -- -- -- -- -- --
2020-01-22 05:00:00 -- -- -- -- -- -- -- -- --
2020-01-22 04:00:00 -- -- -- -- -- -- -- -- --
2020-01-22 03:00:00 -- -- -- -- -- -- -- -- --
2020-01-22 02:00:00 -- -- -- -- -- -- -- -- --
2020-01-22 01:00:00 -- -- -- -- -- -- -- -- --
2020-01-22 00:00:00 -- -- -- -- -- -- -- -- --
2020-01-21 23:00:00 -- -- -- -- -- -- -- -- --
2020-01-21 22:00:00 -- -- -- -- -- -- -- -- --
2020-01-21 21:00:00 -- -- -- -- -- -- -- -- --
2020-01-21 20:00:00 -- -- -- -- -- -- -- -- --
2020-01-21 19:00:00 -- -- -- -- -- -- -- -- --
2020-01-21 18:00:00 -- -- -- -- -- -- -- -- --
2020-01-21 17:00:00 -- -- -- -- -- -- -- -- --
2020-01-21 16:00:00 -- -- -- -- -- -- -- -- --
2020-01-21 15:00:00 -- -- -- -- -- -- -- -- --
2020-01-21 14:00:00 -- -- -- -- -- -- -- -- --
2020-01-21 13:00:00 -- -- -- -- -- -- -- -- --
2020-01-21 12:00:00 -- -- -- -- -- -- -- -- --
2020-01-21 11:00:00 -- -- -- -- -- -- -- -- --
2020-01-21 10:00:00 -- -- -- -- -- -- -- -- --
2020-01-21 09:00:00 -- -- -- -- -- -- -- -- --
2020-01-21 08:00:00 -- -- -- -- -- -- -- -- --
2020-01-21 07:00:00 -- -- -- -- -- -- -- -- --
2020-01-21 06:00:00 -- -- -- -- -- -- -- -- --
2020-01-21 05:00:00 -- -- -- -- -- -- -- -- --
2020-01-21 04:00:00 -- -- -- -- -- -- -- -- --
2020-01-21 03:00:00 -- -- -- -- -- -- -- -- --
2020-01-21 02:00:00 -- -- -- -- -- -- -- -- --
2020-01-21 01:00:00 -- -- -- -- -- -- -- -- --
2020-01-21 00:00:00 -- -- -- -- -- -- -- -- --
2020-01-20 23:00:00 -- -- -- -- -- -- -- -- --
2020-01-20 22:00:00 -- -- -- -- -- -- -- -- --
2020-01-20 21:00:00 -- -- -- -- -- -- -- -- --
2020-01-20 20:00:00 -- -- -- -- -- -- -- -- --
2020-01-20 19:00:00 -- -- -- -- -- -- -- -- --
2020-01-20 18:00:00 -- -- -- -- -- -- -- -- --
2020-01-20 17:00:00 -- -- -- -- -- -- -- -- --
2020-01-20 16:00:00 -- -- -- -- -- -- -- -- --
2020-01-20 15:00:00 -- -- -- -- -- -- -- -- --
2020-01-20 14:00:00 -- -- -- -- -- -- -- -- --
2020-01-20 13:00:00 9.9 38 Este 66 Este 0 -- -- 46
2020-01-20 12:00:00 8.6 37 Este 78 Este 0 -- -- 49
2020-01-20 11:00:00 9 19 Este 45 Este 0 -- -- 54
2020-01-20 10:00:00 6.9 15 Nordeste 39 Este 0 -- -- 63
2020-01-20 09:00:00 5.4 13 Nordeste 37 Este 0 -- -- 67
2020-01-20 08:00:00 5.7 8 Este 46 Este 0 -- -- 66
2020-01-20 07:00:00 6.1 15 Este 42 Este 0 -- -- 65
2020-01-20 06:00:00 6.2 14 Este 39 Nordeste 0 -- -- 64
2020-01-20 05:00:00 6.3 13 Este 37 Nordeste 0 -- -- 63
2020-01-20 04:00:00 6.5 14 Este 46 Nordeste 0 -- -- 64
2020-01-20 03:00:00 6.9 17 Nordeste 42 Este 0 -- -- 60
2020-01-20 02:00:00 7.2 14 Este 50 Este 0 -- -- 58
2020-01-20 01:00:00 7.2 13 Este 32 Nordeste 0 -- -- 55
2020-01-20 00:00:00 6.8 12 Este 31 Este 0 -- -- 56
2020-01-19 23:00:00 6.9 14 Este 38 Este 0 -- -- 55
2020-01-19 22:00:00 6.8 13 Este 33 Este 0 -- -- 56
2020-01-19 21:00:00 6.9 12 Este 37 Nordeste 0 -- -- 55
2020-01-19 20:00:00 7 12 Este 36 Nordeste 0 -- -- 55
2020-01-19 19:00:00 7.8 13 Nordeste 44 Este 0 -- -- 53
2020-01-19 18:00:00 8.8 15 Este 49 Este 0 -- -- 49
2020-01-19 17:00:00 10.4 16 Este 58 Este 0 -- -- 45
2020-01-19 16:00:00 11.7 24 Este 57 Este 0 -- -- 44
2020-01-19 15:00:00 12.1 24 Este 56 Este 0 -- -- 46
2020-01-19 14:00:00 12.3 27 Este 58 Este 0 -- -- 49
2020-01-19 13:00:00 11.3 33 Este 68 Este 0 -- -- 53
2020-01-19 12:00:00 10 27 Este 54 Este 0 -- -- 59
2020-01-19 11:00:00 10.1 24 Este 46 Este 0 -- -- 61
2020-01-19 10:00:00 8.2 15 Este 38 Este 0 -- -- 70
2020-01-19 09:00:00 7.9 14 Este 45 Este 0 -- -- 74
2020-01-19 08:00:00 8.3 15 Este 43 Este 0 -- -- 79
2020-01-19 07:00:00 8.7 19 Nordeste 40 Nordeste 0 -- -- 80
2020-01-19 06:00:00 8.7 18 Nordeste 42 Nordeste 0 -- -- 85
2020-01-19 05:00:00 9 16 Nordeste 41 Este 0 -- -- 89
2020-01-19 04:00:00 8.9 19 Este 42 Nordeste 0 -- -- 89
2020-01-19 03:00:00 8.8 12 Nordeste 31 Nordeste 0 -- -- 94
2020-01-19 02:00:00 8.4 3 Nordeste 7 Sudoeste 0 -- -- 94
2020-01-19 01:00:00 8.5 2 Nordeste 14 Este 0.1 -- -- 94
2020-01-19 00:00:00 8.6 2 Este 13 Nordeste 0 -- -- 94
2020-01-18 23:00:00 9.3 4 Norte 9 Norte 0 -- -- 95
2020-01-18 22:00:00 9.5 0 Calma 6 Oeste 0 -- -- 95
2020-01-18 21:00:00 9.4 3 Oeste 12 Oeste 0.1 -- -- 94
2020-01-18 20:00:00 9.3 3 Oeste 17 Oeste 0.6 -- -- 94
2020-01-18 19:00:00 9.6 8 Oeste 24 Oeste 0.4 -- -- 93
2020-01-18 18:00:00 9.6 8 Sudoeste 19 Sudoeste 0.2 -- -- 90
2020-01-18 17:00:00 9.8 5 Sudoeste 21 Oeste 0.5 -- -- 88
2020-01-18 16:00:00 10.7 6 Oeste 30 Oeste 0 -- -- 82
2020-01-18 15:00:00 13.2 7 Oeste 21 Noroeste 0.1 -- -- 77
2020-01-18 14:00:00 11.9 13 Oeste 45 Oeste 0.2 -- -- 86
2020-01-18 13:00:00 12 12 Oeste 44 Oeste 0.3 -- -- 95
2020-01-18 12:00:00 13.1 21 Oeste 53 Oeste 0.5 -- -- 95
2020-01-18 11:00:00 12.2 12 Oeste 33 Oeste 0.1 -- -- 93
2020-01-18 10:00:00 11.1 8 Oeste 24 Sudoeste 0 -- -- 93
2020-01-18 09:00:00 9.9 7 Oeste 21 Oeste 0.1 -- -- 94
2020-01-18 08:00:00 9.2 5 Oeste 21 Oeste 0 -- -- 91
2020-01-18 07:00:00 8.2 4 Nordeste 14 Nordeste 0 -- -- 88
2020-01-18 06:00:00 8.2 0 Calma 11 Nordeste 0 -- -- 85
2020-01-18 05:00:00 8.3 0 Calma 10 Nordeste 0 -- -- 81
2020-01-18 04:00:00 8.5 8 Nordeste 15 Oeste 0 -- -- 79
2020-01-18 03:00:00 9.1 0 Calma 16 Sur 0 -- -- 73
2020-01-18 02:00:00 9 0 Calma 21 Sudoeste 0 -- -- 74
2020-01-18 01:00:00 7.9 0 Calma 11 Nordeste 0 -- -- 88
2020-01-18 00:00:00 7.5 6 Este 12 Nordeste 0 -- -- 93
2020-01-17 23:00:00 7.4 8 Nordeste 14 Nordeste 0 -- -- 94
2020-01-17 22:00:00 7.5 3 Nordeste 11 Nordeste 0 -- -- 92
2020-01-17 21:00:00 7.7 4 Nordeste 10 Nordeste 0 -- -- 91
2020-01-17 20:00:00 8.1 6 Nordeste 12 Nordeste 0 -- -- 90
2020-01-17 19:00:00 8.6 3 Este 5 Este 0 -- -- 85
2020-01-17 18:00:00 9.4 0 Calma 6 Este 0 -- -- 86
2020-01-17 17:00:00 10.1 0 Calma 5 Oeste 0 -- -- 84
2020-01-17 16:00:00 10 2 Sudoeste 10 Oeste 0 -- -- 81
2020-01-17 15:00:00 10.5 2 Oeste 8 Oeste 0 -- -- 88
2020-01-17 14:00:00 10.3 2 Oeste 7 Oeste 0 -- -- 89
2020-01-17 13:00:00 10.1 2 Oeste 7 Oeste 0 -- -- 86
2020-01-17 12:00:00 9.4 3 Este 9 Sudeste 0.1 -- -- 95
2020-01-17 11:00:00 7.6 2 Noroeste 9 Noroeste 0.8 -- -- 96
2020-01-17 10:00:00 6.1 0 Calma 6 Sudoeste 0 -- -- 96
2020-01-17 09:00:00 6.1 2 Oeste 8 Sudoeste 0 -- -- 96
2020-01-17 08:00:00 6.6 3 Sudoeste 8 Sudoeste 0 -- -- 96
2020-01-17 07:00:00 6.8 0 Calma 17 Noroeste 0.4 -- -- 96
2020-01-17 06:00:00 6.8 2 Oeste 6 Oeste 0.1 -- -- 96
2020-01-17 05:00:00 7.4 5 Oeste 13 Oeste 0 -- -- 96
2020-01-17 04:00:00 7.7 3 Oeste 9 Oeste 0.6 -- -- 96
2020-01-17 03:00:00 7.9 4 Oeste 10 Oeste 0.5 -- -- 96
2020-01-17 02:00:00 8.1 4 Oeste 10 Oeste 0 -- -- 96
2020-01-17 01:00:00 8.5 4 Oeste 31 Oeste 2.1 -- -- 96
2020-01-17 00:00:00 9.6 10 Oeste 28 Oeste 0 -- -- 96
2020-01-16 23:00:00 10.1 12 Oeste 26 Sudoeste 0 -- -- 96
2020-01-16 22:00:00 9.8 5 Oeste 14 Oeste 0 -- -- 96
2020-01-16 21:00:00 9.7 5 Oeste 15 Oeste 0 -- -- 96
2020-01-16 20:00:00 9.5 4 Oeste 12 Oeste 0.2 -- -- 96
2020-01-16 19:00:00 9.6 5 Oeste -- -- -- -- -- 96
2020-01-16 18:00:00 9.6 7 Oeste 31 Oeste 4.2 -- -- 96
2020-01-16 17:00:00 8.6 6 Oeste 78 Oeste 8.9 -- -- 96
2020-01-16 16:00:00 11.9 10 Sudoeste 34 Sudoeste 6.6 -- -- 96
2020-01-16 15:00:00 11.4 10 Oeste 49 Oeste 15.1 -- -- 96
2020-01-16 14:00:00 10.8 17 Oeste 58 Oeste 22.4 -- -- 96
2020-01-16 13:00:00 11.1 23 Oeste 67 Oeste 11 -- -- 94
2020-01-16 12:00:00 12.7 19 Oeste 59 Oeste 4.5 -- -- 93
2020-01-16 11:00:00 13.2 13 Oeste 40 Oeste 1 -- -- 91
2020-01-16 10:00:00 13.3 17 Oeste 48 Sudoeste 1.2 -- -- 90
2020-01-16 09:00:00 14 18 Oeste 54 Sudoeste 0 -- -- 79
2020-01-16 08:00:00 13.9 19 Oeste 50 Sudoeste 0 -- -- 80
2020-01-16 07:00:00 13.8 17 Sudoeste 50 Sudoeste 0.1 -- -- 84
2020-01-16 06:00:00 13.9 19 Oeste 56 Oeste 0 -- -- 86
2020-01-16 05:00:00 13.8 15 Oeste 61 Oeste 0 -- -- 91
2020-01-16 04:00:00 13.6 20 Oeste 53 Oeste 2 -- -- 94
2020-01-16 03:00:00 13.2 11 Oeste 37 Oeste 0.3 -- -- 93
2020-01-16 02:00:00 12.5 10 Oeste 28 Oeste 1.7 -- -- 91
2020-01-16 01:00:00 12.1 6 Oeste 31 Noroeste 0 -- -- 83
2020-01-16 00:00:00 12.5 14 Oeste 38 Oeste 0 -- -- 87
2020-01-15 23:00:00 11.9 5 Oeste 20 Sudoeste 0.4 -- -- 93
2020-01-15 22:00:00 12.3 8 Sudoeste 19 Sur 0 -- -- 89
2020-01-15 21:00:00 10.5 0 Calma 10 Nordeste 0 -- -- 90
2020-01-15 20:00:00 9.8 7 Nordeste 10 Nordeste 0 -- -- 89
2020-01-15 19:00:00 10.6 0 Calma 8 Oeste 0 -- -- 85
2020-01-15 18:00:00 11.5 3 Oeste 18 Oeste 0.1 -- -- 82
2020-01-15 17:00:00 12.9 6 Oeste 21 Oeste 0 -- -- 76
2020-01-15 16:00:00 13.7 5 Oeste 15 Oeste 0 -- -- 76
2020-01-15 15:00:00 13.6 6 Oeste 18 Oeste 0 -- -- 75
2020-01-15 14:00:00 13.5 3 Noroeste 14 Sudoeste 0 -- -- 75
2020-01-15 13:00:00 12.1 0 Calma 5 Oeste 0 -- -- 83
2020-01-15 12:00:00 11 0 Calma 4 Este 0 -- -- 91
2020-01-15 11:00:00 10.7 0 Calma 8 Este 0 -- -- 94
2020-01-15 10:00:00 8.5 6 Nordeste 11 Nordeste 0 -- -- 95
2020-01-15 09:00:00 8.7 4 Nordeste 6 Nordeste 0 -- -- 95
2020-01-15 08:00:00 9.8 0 Calma 9 Sudoeste 0 -- -- 95
2020-01-15 07:00:00 10.6 2 Oeste 46 Oeste 0.9 -- -- 95
2020-01-15 06:00:00 11.4 15 Oeste 51 Oeste 2.5 -- -- 95
2020-01-15 05:00:00 12 22 Oeste 61 Oeste 1.4 -- -- 94
2020-01-15 04:00:00 12.4 26 Oeste 66 Sudoeste 3.9 -- -- 94
2020-01-15 03:00:00 12.7 21 Oeste 57 Sudoeste 0.5 -- -- 88
2020-01-15 02:00:00 13.9 19 Oeste 64 Oeste 0 -- -- 72
2020-01-15 01:00:00 14 23 Oeste 63 Oeste 0 -- -- 75
2020-01-15 00:00:00 13.9 25 Oeste 59 Oeste 0 -- -- 76
2020-01-14 23:00:00 13.2 18 Oeste 50 Sudoeste 0 -- -- 78
2020-01-14 22:00:00 12.5 14 Oeste 46 Oeste 0.5 -- -- 86
2020-01-14 21:00:00 13.1 13 Oeste 53 Oeste 0 -- -- 74
2020-01-14 20:00:00 13.4 15 Oeste 48 Noroeste 0 -- -- 70
2020-01-14 19:00:00 13.2 18 Oeste 61 Oeste 0 -- -- 70
2020-01-14 18:00:00 13.2 22 Oeste 61 Oeste 0 -- -- 71
2020-01-14 17:00:00 13.6 15 Oeste 52 Oeste 0 -- -- 69
2020-01-14 16:00:00 13.9 14 Oeste 53 Sudoeste 0 -- -- 71
2020-01-14 15:00:00 14.6 20 Oeste 61 Oeste 0 -- -- 68
2020-01-14 14:00:00 14.1 19 Oeste 47 Oeste 0 -- -- 70
2020-01-14 13:00:00 13.4 14 Oeste 47 Oeste 0 -- -- 77
2020-01-14 12:00:00 12.3 9 Oeste 38 Oeste 0 -- -- 82
2020-01-14 11:00:00 11.8 12 Sudoeste 45 Oeste 0 -- -- 84
2020-01-14 10:00:00 11.1 12 Oeste 34 Oeste 0.1 -- -- 88
2020-01-14 09:00:00 10.8 12 Oeste 37 Sudoeste 0 -- -- 91
2020-01-14 08:00:00 10.5 10 Sudoeste 34 Sur 0.6 -- -- 93
2020-01-14 07:00:00 10.7 10 Oeste 32 Sudoeste 0 -- -- 91
2020-01-14 06:00:00 10.4 10 Sudoeste 37 Oeste 0.4 -- -- 92
2020-01-14 05:00:00 10.4 10 Sudoeste 41 Sudoeste 0.2 -- -- 91
2020-01-14 04:00:00 10.4 15 Sudoeste 41 Sur 0.8 -- -- 93
2020-01-14 03:00:00 10.3 11 Sudoeste 39 Sudoeste 0.6 -- -- 93
2020-01-14 02:00:00 10.4 15 Sudoeste 45 Sudoeste 0.4 -- -- 93
2020-01-14 01:00:00 10.5 18 Sudoeste 48 Sudoeste 0.2 -- -- 93
2020-01-14 00:00:00 9.9 12 Sudoeste 39 Sudoeste 0.6 -- -- 94
2020-01-13 23:00:00 9.8 12 Sudoeste 42 Sudoeste 0.2 -- -- 93
2020-01-13 22:00:00 9.4 13 Sudoeste 40 Sudoeste 0.3 -- -- 93
2020-01-13 21:00:00 9.3 10 Oeste 36 Sudoeste 0.1 -- -- 92
2020-01-13 20:00:00 9.2 11 Oeste 33 Sudoeste 0 -- -- 88
2020-01-13 19:00:00 10.1 10 Sudoeste 36 Sur 0 -- -- 75
2020-01-13 18:00:00 9.8 9 Oeste 31 Sudoeste 0 -- -- 74
2020-01-13 17:00:00 10 11 Oeste 40 Oeste 0 -- -- 72
2020-01-13 16:00:00 10 11 Sudoeste 32 Sudoeste 0 -- -- 72
2020-01-13 15:00:00 10 10 Oeste 30 Oeste 0 -- -- 72
2020-01-13 14:00:00 9.7 9 Oeste 37 Sudoeste 0 -- -- 72
2020-01-13 13:00:00 9.8 14 Oeste 39 Sudoeste 0 -- -- 72
2020-01-13 12:00:00 9.7 10 Oeste 28 Oeste 0 -- -- 73
2020-01-13 11:00:00 9 6 Oeste 30 Sudoeste 0 -- -- 75
2020-01-13 10:00:00 8.3 10 Oeste 28 Sudoeste 0 -- -- 78
2020-01-13 09:00:00 8.7 10 Sudoeste 30 Sudoeste 0 -- -- 68
2020-01-13 08:00:00 8.2 11 Sudoeste 22 Sur 0 -- -- 74
2020-01-13 07:00:00 7.8 6 Oeste 16 Oeste 0 -- -- 83
2020-01-13 06:00:00 8.1 7 Oeste 19 Oeste 0 -- -- 83
2020-01-13 05:00:00 7.9 6 Oeste 16 Sudoeste 0 -- -- 88
2020-01-13 04:00:00 7.4 3 Oeste 17 Oeste 0 -- -- 88
2020-01-13 03:00:00 7.9 7 Oeste 18 Oeste 0 -- -- 88
2020-01-13 02:00:00 7.8 3 Oeste 12 Sudoeste 0 -- -- 92
2020-01-13 01:00:00 8.2 2 Oeste 9 Oeste 0 -- -- 92
2020-01-13 00:00:00 8.1 3 Oeste 10 Oeste 0 -- -- 92
2020-01-12 23:00:00 8 0 Calma 6 Norte 0 -- -- 92
2020-01-12 22:00:00 8.4 3 Oeste 7 Oeste 0 -- -- 92
2020-01-12 21:00:00 8.2 3 Oeste 9 Sudoeste 0 -- -- 92
2020-01-12 20:00:00 8.8 0 Calma 8 Oeste 0 -- -- 91
2020-01-12 19:00:00 8.5 4 Oeste 10 Oeste 0 -- -- 89
2020-01-12 18:00:00 9.5 5 Oeste 14 Oeste 0 -- -- 84
2020-01-12 17:00:00 11.3 6 Oeste 15 Oeste 0 -- -- 77
2020-01-12 16:00:00 11.7 5 Oeste 13 Oeste 0 -- -- 78
2020-01-12 15:00:00 10.2 4 Oeste 8 Oeste 0 -- -- 78
2020-01-12 14:00:00 8.7 5 Este 16 Este 0 -- -- 82
2020-01-12 13:00:00 6.6 10 Este 21 Nordeste 0 -- -- 89
2020-01-12 12:00:00 4.3 15 Este 25 Este 0 -- -- 97
2020-01-12 11:00:00 1.5 19 Nordeste 28 Este 0 -- -- 97
2020-01-12 10:00:00 0.1 19 Nordeste 25 Este 0 -- -- 97
2020-01-12 09:00:00 -0.2 20 Nordeste 29 Este 0 -- -- 97
2020-01-12 08:00:00 -0.1 21 Nordeste 31 Este 0 -- -- 97
2020-01-12 07:00:00 -0.2 21 Nordeste 26 Nordeste 0 -- -- 97
2020-01-12 06:00:00 -0.2 17 Nordeste 22 Nordeste 0 -- -- 97
2020-01-12 05:00:00 -0.1 18 Nordeste 23 Este 0 -- -- 97
2020-01-12 04:00:00 0 19 Nordeste 25 Este 0 -- -- 97
2020-01-12 03:00:00 0.4 17 Nordeste 20 Nordeste 0 -- -- 97
2020-01-12 02:00:00 1.1 12 Este 16 Este 0 -- -- 97
2020-01-12 01:00:00 1.8 10 Este 20 Este 0 -- -- 96
2020-01-12 00:00:00 3 9 Nordeste 18 Nordeste 0 -- -- 95
2020-01-11 23:00:00 3.5 11 Nordeste 14 Nordeste 0 -- -- 94
2020-01-11 22:00:00 4.3 10 Nordeste 13 Nordeste 0 -- -- 92
2020-01-11 21:00:00 5.5 6 Este 12 Nordeste 0 -- -- 88
2020-01-11 20:00:00 5.9 5 Nordeste 6 Nordeste 0 -- -- 82
2020-01-11 19:00:00 8 0 Calma 5 Sudoeste 0 -- -- 70
2020-01-11 18:00:00 8.8 2 Oeste 15 Oeste 0 -- -- 73
2020-01-11 17:00:00 11.1 4 Oeste 14 Oeste 0 -- -- 68
2020-01-11 16:00:00 10.5 0 Calma 10 Nordeste 0 -- -- 71
2020-01-11 15:00:00 9.3 6 Nordeste 14 Este 0 -- -- 74
2020-01-11 14:00:00 7.8 9 Este 16 Este 0 -- -- 86
2020-01-11 13:00:00 4.9 12 Nordeste 22 Nordeste 0 -- -- 97
2020-01-11 12:00:00 2 16 Nordeste 24 Nordeste 0 -- -- 97
2020-01-11 11:00:00 0.5 14 Este 22 Este 0 -- -- 97
2020-01-11 10:00:00 -0.3 18 Nordeste 24 Nordeste 0 -- -- 97
2020-01-11 09:00:00 -0.5 19 Nordeste 28 Nordeste 0 -- -- 97
2020-01-11 08:00:00 -0.4 18 Nordeste 26 Nordeste 0 -- -- 97
2020-01-11 07:00:00 -0.4 16 Nordeste 23 Este 0 -- -- 97
2020-01-11 06:00:00 -0.2 20 Nordeste 25 Este 0 -- -- 97
2020-01-11 05:00:00 0 17 Nordeste 25 Nordeste 0 -- -- 97
2020-01-11 04:00:00 0.5 14 Este 25 Este 0 -- -- 97
2020-01-11 03:00:00 1.1 18 Este 24 Nordeste 0 -- -- 97
2020-01-11 02:00:00 1.9 17 Nordeste 22 Este 0 -- -- 96
2020-01-11 01:00:00 2.6 10 Nordeste 20 Nordeste 0 -- -- 96
2020-01-11 00:00:00 3.1 13 Nordeste 23 Nordeste 0 -- -- 95
2020-01-10 23:00:00 4.5 14 Nordeste 20 Nordeste 0 -- -- 95
2020-01-10 22:00:00 4.3 9 Nordeste 15 Este 0 -- -- 94
2020-01-10 21:00:00 5 5 Este 11 Nordeste 0 -- -- 92
2020-01-10 20:00:00 6 6 Nordeste 9 Este 0 -- -- 89
2020-01-10 19:00:00 7.6 4 Nordeste 6 Nordeste 0 -- -- 80
2020-01-10 18:00:00 9.5 2 Este 7 Nordeste 0 -- -- 69
2020-01-10 17:00:00 10.8 3 Nordeste 13 Este 0 -- -- 69
2020-01-10 16:00:00 11.1 10 Este 16 Este 0 -- -- 66
2020-01-10 15:00:00 11.4 7 Este 14 Este 0 -- -- 77
2020-01-10 14:00:00 9.2 11 Nordeste 18 Este 0 -- -- 96
2020-01-10 13:00:00 7.3 13 Nordeste 21 Este 0 -- -- 96
2020-01-10 12:00:00 4.8 14 Este 19 Este 0 -- -- 97
2020-01-10 11:00:00 4 10 Este 24 Nordeste 0 -- -- 97
2020-01-10 10:00:00 2.8 12 Este 24 Este 0 -- -- 97
2020-01-10 09:00:00 2.5 11 Nordeste 21 Este 0 -- -- 97
2020-01-10 08:00:00 2.8 14 Este 22 Este 0 -- -- 97
2020-01-10 07:00:00 3.1 10 Este 19 Este 0 -- -- 97
2020-01-10 06:00:00 3.4 11 Este 21 Este 0 -- -- 96
2020-01-10 05:00:00 3.6 11 Este 18 Este 0 -- -- 96
2020-01-10 04:00:00 3.9 10 Este 15 Este 0 -- -- 95
2020-01-10 03:00:00 4.6 4 Nordeste 12 Nordeste 0.1 -- -- 95
2020-01-10 02:00:00 5.1 6 Nordeste 11 Nordeste 0 -- -- 94
2020-01-10 01:00:00 6 0 Calma 9 Nordeste 0 -- -- 93
2020-01-10 00:00:00 6.4 2 Este 8 Este 0 -- -- 90
2020-01-09 23:00:00 7.1 0 Calma 6 Oeste 0.1 -- -- 90
2020-01-09 22:00:00 7.4 0 Calma 5 Sudeste 0 -- -- 84
2020-01-09 21:00:00 7 0 Calma 3 Oeste 0 -- -- 85
2020-01-09 20:00:00 7.9 0 Calma 5 Este 0 -- -- 78
2020-01-09 19:00:00 8.2 0 Calma 6 Sur 0 -- -- 75
2020-01-09 18:00:00 8.9 0 Calma 14 Oeste 0 -- -- 75
2020-01-09 17:00:00 10.3 4 Oeste 17 Oeste 0 -- -- 71
2020-01-09 16:00:00 11.7 5 Oeste 26 Oeste 0 -- -- 77
2020-01-09 15:00:00 12.2 10 Noroeste 30 Oeste 0 -- -- 69
2020-01-09 14:00:00 11.6 8 Oeste 37 Oeste 0.1 -- -- 96
2020-01-09 13:00:00 12.9 11 Oeste 37 Oeste 0.1 -- -- 96
2020-01-09 12:00:00 12.6 19 Oeste 45 Sudoeste 0.3 -- -- 96
2020-01-09 11:00:00 12.8 13 Oeste 39 Oeste 0.1 -- -- 96
2020-01-09 10:00:00 12.3 8 Oeste 29 Sudoeste 0.3 -- -- 96
2020-01-09 09:00:00 12.3 10 Oeste 37 Sudoeste 0.1 -- -- 96
2020-01-09 08:00:00 12.3 12 Oeste 30 Oeste 0 -- -- 96
2020-01-09 07:00:00 12.2 9 Oeste 32 Oeste 0 -- -- 96
2020-01-09 06:00:00 12.1 11 Oeste 27 Oeste 0.1 -- -- 96
2020-01-09 05:00:00 12 6 Oeste 17 Sudoeste 0.1 -- -- 96
2020-01-09 04:00:00 11.6 5 Oeste 13 Oeste 0.4 -- -- 96
2020-01-09 03:00:00 11.3 4 Noroeste 11 Oeste 0.6 -- -- 96
2020-01-09 02:00:00 11.3 5 Oeste 14 Oeste 0 -- -- 96
2020-01-09 01:00:00 11.2 3 Oeste 9 Oeste 0.1 -- -- 96
2020-01-09 00:00:00 11.1 3 Noroeste 9 Oeste 0.1 -- -- 96
2020-01-08 23:00:00 11.1 3 Oeste 9 Oeste 0.1 -- -- 96
2020-01-08 22:00:00 11.1 2 Oeste 10 Oeste 0 -- -- 96
2020-01-08 21:00:00 10.9 0 Calma 5 Oeste 0 -- -- 96
2020-01-08 20:00:00 10.8 3 Oeste 8 Oeste 0.2 -- -- 96
2020-01-08 19:00:00 11 2 Oeste 8 Oeste 0.1 -- -- 96
2020-01-08 18:00:00 11.2 3 Oeste 9 Oeste 0 -- -- 96
2020-01-08 17:00:00 11.7 3 Oeste 9 Oeste 0 -- -- 96
2020-01-08 16:00:00 11.8 3 Oeste 9 Oeste 0.1 -- -- 96
2020-01-08 15:00:00 11.9 4 Oeste 7 Oeste 0.1 -- -- 96
2020-01-08 14:00:00 11.3 0 Calma -- -- -- -- -- 96
2020-01-08 13:00:00 -- -- -- -- -- -- -- -- --
2020-01-08 12:00:00 -- -- -- -- -- -- -- -- --
2020-01-08 11:00:00 -- -- -- -- -- -- -- -- --
2020-01-08 10:00:00 -- -- -- -- -- -- -- -- --
2020-01-08 09:00:00 -- -- -- -- -- -- -- -- --
2020-01-08 08:00:00 -- -- -- -- -- -- -- -- --
2020-01-08 07:00:00 -- -- -- -- -- -- -- -- --
2020-01-08 06:00:00 -- -- -- -- -- -- -- -- --
2020-01-08 05:00:00 -- -- -- -- -- -- -- -- --
2020-01-08 04:00:00 -- -- -- -- -- -- -- -- --
2020-01-08 03:00:00 -- -- -- -- -- -- -- -- --
2020-01-08 02:00:00 -- -- -- -- -- -- -- -- --
2020-01-08 01:00:00 -- -- -- -- -- -- -- -- --
2020-01-08 00:00:00 -- -- -- -- -- -- -- -- --
2020-01-07 23:00:00 -- -- -- -- -- -- -- -- --
2020-01-07 22:00:00 -- -- -- -- -- -- -- -- --
2020-01-07 21:00:00 -- -- -- -- -- -- -- -- --
2020-01-07 20:00:00 -- -- -- -- -- -- -- -- --
2020-01-07 19:00:00 -- -- -- -- -- -- -- -- --
2020-01-07 18:00:00 -- -- -- -- -- -- -- -- --
2020-01-07 17:00:00 -- -- -- -- -- -- -- -- --
2020-01-07 16:00:00 -- -- -- -- -- -- -- -- --
2020-01-07 15:00:00 -- -- -- -- -- -- -- -- --
2020-01-07 14:00:00 -- -- -- -- -- -- -- -- --
2020-01-07 13:00:00 -- -- -- -- -- -- -- -- --
2020-01-07 12:00:00 -- -- -- -- -- -- -- -- --
2020-01-07 11:00:00 -- -- -- -- -- -- -- -- --
2020-01-07 10:00:00 -- -- -- -- -- -- -- -- --
2020-01-07 09:00:00 -- -- -- -- -- -- -- -- --
2020-01-07 08:00:00 -- -- -- -- -- -- -- -- --
2020-01-07 07:00:00 -- -- -- -- -- -- -- -- --
2020-01-07 06:00:00 -- -- -- -- -- -- -- -- --
2020-01-07 05:00:00 -- -- -- -- -- -- -- -- --
2020-01-07 04:00:00 -- -- -- -- -- -- -- -- --
2020-01-07 03:00:00 -- -- -- -- -- -- -- -- --
2020-01-07 02:00:00 -- -- -- -- -- -- -- -- --
2020-01-07 01:00:00 -- -- -- -- -- -- -- -- --
2020-01-07 00:00:00 -- -- -- -- -- -- -- -- --
2020-01-06 23:00:00 -- -- -- -- -- -- -- -- --
2020-01-06 22:00:00 -- -- -- -- -- -- -- -- --
2020-01-06 21:00:00 -- -- -- -- -- -- -- -- --
2020-01-06 20:00:00 -- -- -- -- -- -- -- -- --
2020-01-06 19:00:00 -- -- -- -- -- -- -- -- --
2020-01-06 18:00:00 -- -- -- -- -- -- -- -- --
2020-01-06 17:00:00 -- -- -- -- -- -- -- -- --
2020-01-06 16:00:00 -- -- -- -- -- -- -- -- --
2020-01-06 15:00:00 -- -- -- -- -- -- -- -- --
2020-01-06 14:00:00 -- -- -- -- -- -- -- -- --
2020-01-06 13:00:00 -- -- -- -- -- -- -- -- --
2020-01-06 12:00:00 -- -- -- -- -- -- -- -- --
2020-01-06 11:00:00 -- -- -- -- -- -- -- -- --
2020-01-06 10:00:00 -- -- -- -- -- -- -- -- --